Home > Products > Valid Products > MTR

000
SAUS46 KMFR 310957
MTRSXT
METAR KSXT 310956Z AUTO 20010G23KT 1/4SM -RA FG VV001 08/08 A2977
RMK AO2 RAB20 SLP064 P0002 T00780078





000
SAUS46 KMFR 310857
MTRSXT
METAR KSXT 310856Z AUTO 18013G20KT 150V220 1/4SM FG VV001 08/08
A2976 RMK AO2 RAE34 SLP061 P0001 60005 T00780078 56012





000
SAUS46 KMFR 310835
MTRSXT
SPECI KSXT 310834Z AUTO 18014G20KT 1/4SM FG VV003 08/08 A2978 RMK
AO2 RAE34 P0001 T00780078





000
SAUS46 KMFR 310827
MTRSXT
SPECI KSXT 310825Z AUTO 19011KT 1/4SM -RA FG VV005 08/08 A2978 RMK
AO2 P0001 T00780078





000
SAUS46 KMFR 310805
MTRSXT
SPECI KSXT 310804Z AUTO 19010G18KT 1/4SM -RA FG VV003 08/08 A2979
RMK AO2 P0000 T00780078





000
SAUS46 KMFR 310757
MTRSXT
METAR KSXT 310756Z AUTO 20012G19KT 1/4SM -RA FG VV001 08/08 A2979
RMK AO2 SLP067 P0001 T00780078 401560072





000
SAUS46 KMFR 310728
MTRSXT
SPECI KSXT 310727Z AUTO 19011G19KT 1/4SM -RA FG VV001 08/08 A2980
RMK AO2 P0001 T00780078





000
SAUS46 KMFR 310713
MTRSXT
SPECI KSXT 310712Z AUTO 20013G21KT 1/4SM -RA FG VV002 08/08 A2980
RMK AO2 P0000 T00780078





000
SAUS46 KMFR 310700
MTRMHS
METAR KMHS 310656Z AUTO VRB03KT 10SM FEW026 SCT031 SCT038 12/07
A2985 RMK AO2 SLP106 T01170072





000
SAUS46 KMFR 310657
MTRSXT
METAR KSXT 310656Z AUTO 20011G20KT 1/4SM -RA FG FEW003 BKN009 OVC050
08/08 A2980 RMK AO2 PK WND 22028/0615 SLP071 P0003 T00780078





000
SAUS46 KMFR 310652
MTRSXT
SPECI KSXT 310651Z AUTO 20011G20KT 3/4SM -RA BR FEW003 BKN016 OVC049
08/08 A2980 RMK AO2 PK WND 22028/0615 P0002





000
SAUS46 KMFR 310650
MTRSXT
SPECI KSXT 310649Z AUTO 20012G20KT 1 3/4SM -RA BR FEW003 BKN021
OVC049 08/08 A2980 RMK AO2 PK WND 22028/0615 P0002 T00780078





000
SAUS46 KMFR 310633
MTRSXT
SPECI KSXT 310632Z AUTO 20015G25KT 160V220 3SM -RA BR FEW004 SCT021
OVC048 07/07 A2980 RMK AO2 PK WND 22028/0615 P0001 T00720072





000
SAUS46 KMFR 310631
MTRSXT
SPECI KSXT 310629Z AUTO 20013G25KT 1 1/4SM -RA BR SCT004 SCT011
OVC048 07/07 A2980 RMK AO2 PK WND 22028/0615 P0001 T00720072





000
SAUS46 KMFR 310623
MTRSXT
SPECI KSXT 310622Z AUTO 19014G28KT 1 1/2SM -RA BR SCT004 BKN008
OVC048 08/07 A2980 RMK AO2 PK WND 22028/0615 P0001 T00780072





000
SAUS46 KMFR 310617
MTRSXT
SPECI KSXT 310616Z AUTO 22017G28KT 3SM -RA BR SCT006 BKN014 OVC050
08/08 A2981 RMK AO2 PK WND 22028/0615 P0001 T00780078





000
SAUS46 KMFR 310614
MTRSXT
SPECI KSXT 310613Z AUTO 21012G26KT 1 1/2SM -RA BR BKN009 BKN014
OVC050 08/07 A2981 RMK AO2 PK WND 22026/0604 VIS 1/2V5 P0001
T00780072





000
SAUS46 KMFR 310605
MTRSXT
SPECI KSXT 310604Z AUTO 20018G26KT 1/4SM -RA FG BKN005 BKN050 08/08
A2982 RMK AO2 PK WND 22026/0604 P0000 T00830083





000
SAUS46 KMFR 310557
MTRSXT
METAR KSXT 310556Z AUTO 19010G16KT 1/2SM -RA FG BKN009 BKN036 OVC050
08/08 A2982 RMK AO2 SLP079 P0003 60009 T00830083 10100 20078 57007





000
SAUS46 KMFR 310537
MTRSXT
SPECI KSXT 310536Z AUTO 20008KT 1/2SM -RA FG BKN006 OVC028 08/08
A2983 RMK AO2 P0002 T00830083





000
SAUS46 KMFR 310523
MTRSXT
SPECI KSXT 310522Z AUTO 19008G16KT 1/2SM -RA FG SCT005 OVC026 08/08
A2983 RMK AO2 VIS 1/4V2 1/2 P0001 T00830083





000
SAUS46 KMFR 310459
MTRSXT
SPECI KSXT 310458Z AUTO 22008KT 3/4SM -RA BR FEW015 BKN024 OVC047
08/08 A2983 RMK AO2 VIS 1/4V5 P0000 T00830083





000
SAUS46 KMFR 310458
MTRSXT
METAR KSXT 310456Z AUTO 21007KT 1 1/2SM -RA BR BKN024 BKN037 OVC049
08/08 A2983 RMK AO2 VIS 1/4V5 SLP081 P0003 T00830083





000
SAUS46 KMFR 310458
MTRSXT
METAR KSXT 310456Z AUTO 21007KT 1 1/2SM -RA BR BKN024 BKN037 OVC049
08/08 A2983 RMK AO2 VIS 1/4V5 SLP081 P0003 T00830083





000
SAUS46 KMFR 310446
MTRSXT
SPECI KSXT 310445Z AUTO 22007KT 170V240 3SM -RA BR BKN024 BKN037
OVC048 08/08 A2983 RMK AO2 P0002 T00830083





000
SAUS46 KMFR 310428
MTRSXT
SPECI KSXT 310427Z AUTO VRB06KT 4SM -RA BR FEW017 BKN041 OVC060
08/08 A2983 RMK AO2 P0002 T00830083





000
SAUS46 KMFR 310421
MTRSXT
SPECI KSXT 310420Z AUTO 24006KT 2 1/2SM -RA BR FEW016 BKN041 OVC065
08/08 A2983 RMK AO2 P0002 T00830078





000
SAUS46 KMFR 310421
MTRSXT
SPECI KSXT 310420Z AUTO 24006KT 2 1/2SM -RA BR FEW016 BKN041 OVC065
08/08 A2983 RMK AO2 P0002 T00830078





000
SAUS46 KMFR 310419
MTRSXT
SPECI KSXT 310418Z AUTO VRB06KT 1 1/4SM -RA BR FEW016 BKN041 OVC065
08/08 A2983 RMK AO2 P0002 T00830083





000
SAUS46 KMFR 310419
MTRSXT
SPECI KSXT 310418Z AUTO VRB06KT 1 1/4SM -RA BR FEW016 BKN041 OVC065
08/08 A2983 RMK AO2 P0002 T00830083





000
SAUS46 KMFR 310412
MTRSXT
SPECI KSXT 310410Z AUTO 22005KT 3/4SM -RA BR FEW017 BKN026 OVC065
08/08 A2983 RMK AO2 P0001 T00830083





000
SAUS46 KMFR 310407
MTRSXT
SPECI KSXT 310406Z AUTO 25006KT 1 3/4SM -RA BR FEW017 BKN026 OVC065
08/08 A2983 RMK AO2 P0001 T00830083





000
SAUS46 KMFR 310357
MTRSXT
METAR KSXT 310356Z AUTO 25005KT 4SM -RA BR FEW005 BKN025 OVC048
08/08 A2984 RMK AO2 RAB46 SLP088 P0000 T00830083





000
SAUS46 KMFR 310357
MTRSXT
METAR KSXT 310356Z AUTO 25005KT 4SM -RA BR FEW005 BKN025 OVC048
08/08 A2984 RMK AO2 RAB46 SLP088 P0000 T00830083





000
SAUS46 KMFR 310349
MTRSXT
SPECI KSXT 310348Z AUTO 23005KT 4SM -RA BR SCT003 BKN019 OVC025
08/08 A2984 RMK AO2 RAB46 P0000 T00830083





000
SAUS46 KMFR 310349
MTRSXT
SPECI KSXT 310348Z AUTO 23005KT 4SM -RA BR SCT003 BKN019 OVC025
08/08 A2984 RMK AO2 RAB46 P0000 T00830083





000
SAUS46 KMFR 310337
MTRSXT
SPECI KSXT 310336Z AUTO VRB06KT 3SM BR SCT002 BKN007 OVC013 09/08
A2985 RMK AO2 T00890083





000
SAUS46 KMFR 310337
MTRSXT
SPECI KSXT 310336Z AUTO VRB06KT 3SM BR SCT002 BKN007 OVC013 09/08
A2985 RMK AO2 T00890083





000
SAUS46 KMFR 310335
MTRSXT
SPECI KSXT 310334Z AUTO VRB05KT 2 1/2SM BR BKN002 OVC011 09/09 A2984
RMK AO2 T00890089





000
SAUS46 KMFR 310335
MTRSXT
SPECI KSXT 310334Z AUTO VRB05KT 2 1/2SM BR BKN002 OVC011 09/09 A2984
RMK AO2 T00890089





000
SAUS46 KMFR 310333
MTRSXT
SPECI KSXT 310332Z AUTO VRB05KT 1 1/4SM BR BKN002 OVC013 09/09 A2985
RMK AO2 T00890089





000
SAUS46 KMFR 310257
MTRSXT
METAR KSXT 310256Z AUTO VRB06KT 1/4SM FG VV002 09/09 A2985 RMK AO2
RAE05B10E23 SLP092 P0001 60003 T00890089 56010





000
SAUS46 KMFR 310216
MTRSXT
SPECI KSXT 310215Z AUTO 23007KT M1/4SM -RA FG BKN004 OVC040 09/09
A2985 RMK AO2 RAE05B10 P0001 T00890089





000
SAUS46 KMFR 310209
MTRSXT
SPECI KSXT 310207Z AUTO 20006KT 1/4SM FG BKN012 BKN040 OVC049 09/09
A2985 RMK AO2 RAE05 P0001 T00940094





000
SAUS46 KMFR 310157
MTRSXT
METAR KSXT 310156Z AUTO 22005KT 3/4SM -RA BR SCT031 BKN040 OVC048
09/09 A2985 RMK AO2 VIS 1/2V1 1/2 SLP089 P0002 T00940094





000
SAUS46 KMFR 310142
MTRSXT
SPECI KSXT 310141Z AUTO 21008KT 3/4SM -RA BR BKN030 OVC046 09/09
A2985 RMK AO2 P0002 T00940094





000
SAUS46 KMFR 310139
MTRSXT
SPECI KSXT 310137Z AUTO 22007KT 1 1/2SM -RA BR BKN028 BKN033 OVC050
09/09 A2985 RMK AO2 VIS 1/2V5 P0002 T00940094





000
SAUS46 KMFR 310136
MTRSXT
SPECI KSXT 310134Z AUTO 21007KT 3SM -RA BR FEW007 BKN033 OVC046
09/09 A2985 RMK AO2 P0002 T00940089





000
SAUS46 KMFR 310131
MTRSXT
SPECI KSXT 310130Z AUTO 21008KT 2SM -RA BR SCT007 BKN027 OVC046
09/09 A2985 RMK AO2 VIS 1V3 P0001 T00890089





000
SAUS46 KMFR 310129
MTRSXT
SPECI KSXT 310128Z AUTO 22007KT 1SM -RA BR SCT007 BKN027 OVC050
09/09 A2985 RMK AO2 VIS 1/4V3 P0001 T00890089





000
SAUS46 KMFR 310116
MTRSXT
SPECI KSXT 310115Z AUTO VRB05KT 1/2SM -RA FG SCT003 BKN007 OVC027
09/09 A2986 RMK AO2 P0000 T00940089





000
SAUS46 KMFR 310109
MTRSXT
SPECI KSXT 310108Z AUTO VRB05KT 1SM -RA BR SCT003 OVC007 09/09 A2986
RMK AO2 P0000 T00940089





000
SAUS46 KMFR 310057
MTRSXT
METAR KSXT 310056Z AUTO 26004KT 8SM -RA BKN005 OVC010 10/09 A2986
RMK AO2 RAB56 SLP094 P0000 T01000089





000
SAUS46 KMFR 310048
MTRSXT
SPECI KSXT 310047Z AUTO VRB04KT 10SM OVC005 10/09 A2986 RMK AO2
T01000089





000
SAUS46 KMFR 310002
MTRSXT
SPECI KSXT 310001Z AUTO VRB03KT 3SM BR OVC002 10/10 A2988 RMK AO2
T01000100





000
SAUS46 KMFR 310000
MTRSXT
SPECI KSXT 302359Z AUTO 00000KT 1SM BR VV002 10/10 A2988 RMK AO2 VIS
M1/4V5 T01000100





000
SAUS46 KMFR 302357
MTRSXT
METAR KSXT 302356Z AUTO VRB03KT 1/4SM FG VV002 10/10 A2988 RMK AO2
SLP098 T01000100 10156 20100 56007





000
SAUS46 KMFR 302342
MTRSXT
SPECI KSXT 302341Z AUTO VRB04KT 1/4SM FG VV002 10/10 A2988 RMK AO2
T01000100





000
SAUS46 KMFR 302327
MTRSXT
SPECI KSXT 302326Z AUTO 00000KT 1/2SM FG VV002 10/10 A2988 RMK AO2
T01000100





000
SAUS46 KMFR 302258
MTRSXT
METAR KSXT 302256Z AUTO 21007KT M1/4SM FG VV001 11/11 A2988 RMK AO2
SLP099 T01060106





000
SAUS46 KMFR 302246
MTRSXT
SPECI KSXT 302245Z AUTO 20009KT M1/4SM FG VV001 11/11 A2988 RMK AO2
T01060106





000
SAUS46 KMFR 302238
MTRSXT
SPECI KSXT 302237Z AUTO 20007G15KT 1/4SM FG BKN002 OVC050 11/11
A2989 RMK AO2 T01060106





000
SAUS46 KMFR 302228
MTRSXT
SPECI KSXT 302227Z AUTO 19010KT 3/4SM BR BKN002 OVC050 11/11 A2988
RMK AO2 T01110106





000
SAUS46 KMFR 302225
MTRSXT
SPECI KSXT 302224Z AUTO 19011KT 1 3/4SM BR BKN002 OVC047 11/11 A2988
RMK AO2 T01110106





000
SAUS46 KMFR 302209
MTRSXT
SPECI KSXT 302208Z AUTO 20011G20KT 5SM BR BKN002 BKN013 OVC049 11/11
A2988 RMK AO2 T01110106





000
SAUS46 KMFR 302209
MTRSXT
SPECI KSXT 302208Z AUTO 20011G20KT 5SM BR BKN002 BKN013 OVC049 11/11
A2988 RMK AO2 T01110106





000
SAUS46 KMFR 302157
MTRSXT
METAR KSXT 302156Z AUTO 20012G22KT 10SM SCT004 BKN047 OVC055 11/11
A2988 RMK AO2 SLP099 T01110106





000
SAUS46 KMFR 302157
MTRSXT
METAR KSXT 302156Z AUTO 20012G22KT 10SM SCT004 BKN047 OVC055 11/11
A2988 RMK AO2 SLP099 T01110106





000
SAUS46 KMFR 302147
MTRSXT
SPECI KSXT 302146Z AUTO 19014G22KT 10SM FEW004 OVC050 12/11 A2989
RMK AO2 T01170106





000
SAUS46 KMFR 302147
MTRSXT
SPECI KSXT 302146Z AUTO 19014G22KT 10SM FEW004 OVC050 12/11 A2989
RMK AO2 T01170106





000
SAUS46 KMFR 302058
MTRSXT
METAR KSXT 302056Z AUTO 20012G23KT 10SM BKN046 OVC060 12/10 A2990
RMK AO2 SLP100 T01220100 58013





000
SAUS46 KMFR 301957
MTRSXT
METAR KSXT 301956Z AUTO 20011G17KT 170V230 10SM OVC100 14/11 A2993
RMK AO2 SLP108 T01390106





000
SAUS46 KMFR 301857
MTRSXT
METAR KSXT 301856Z AUTO 19006KT 10SM CLR 14/11 A2994 RMK AO2 SLP111
T01390106





000
SAUS46 KMFR 301757
MTRSXT
METAR KSXT 301756Z AUTO 17006KT 10SM FEW110 13/11 A2994 RMK AO2
SLP116 T01280106 10144 20100 56003





000
SAUS46 KMFR 301657
MTRSXT
METAR KSXT 301656Z AUTO 16009KT 10SM FEW002 13/11 A2995 RMK AO2
SLP117 T01330106





000
SAUS46 KMFR 301657
MTRSXT
METAR KSXT 301656Z AUTO 16009KT 10SM FEW002 13/11 A2995 RMK AO2
SLP117 T01330106





000
SAUS46 KMFR 301654
MTRSXT
SPECI KSXT 301653Z AUTO 16008KT 10SM FEW002 13/11 A2995 RMK AO2





000
SAUS46 KMFR 301654
MTRSXT
SPECI KSXT 301653Z AUTO 16008KT 10SM FEW002 13/11 A2995 RMK AO2





000
SAUS46 KMFR 301557
MTRSXT
METAR KSXT 301556Z AUTO 17008KT 10SM BKN002 11/11 A2995 RMK AO2
SLP125 T01060106





000
SAUS46 KMFR 301458
MTRSXT
METAR KSXT 301456Z AUTO 16011KT 10SM FEW003 10/10 A2995 RMK AO2
SLP125 T01000100 56010





000
SAUS46 KMFR 301446
MTRSXT
SPECI KSXT 301445Z AUTO 16011KT 10SM FEW003 10/09 A2995 RMK AO2
T01000094





000
SAUS46 KMFR 301357
MTRSXT
METAR KSXT 301356Z AUTO 16010KT 10SM CLR 11/08 A2996 RMK AO2 SLP127
T01060083





000
SAUS46 KMFR 301257
MTRSXT
METAR KSXT 301256Z AUTO 15009KT 10SM CLR 10/08 A2997 RMK AO2 SLP132
T01000078





000
SAUS46 KMFR 301157
MTRSXT
METAR KSXT 301156Z AUTO 17007KT 10SM OVC110 11/08 A2998 RMK AO2
SLP135 60000 T01060078 10117 20100 57010





000
SAUS46 KMFR 301057
MTRSXT
METAR KSXT 301056Z AUTO 14008KT 10SM OVC120 11/08 A2999 RMK AO2
SLP137 T01110078





000
SAUS46 KMFR 301057
MTRSXT
METAR KSXT 301056Z AUTO 14008KT 10SM OVC120 11/08 A2999 RMK AO2
SLP137 T01110078





000
SAUS46 KMFR 300957
MTRSXT
METAR KSXT 300956Z AUTO 14010KT 10SM OVC100 11/08 A3001 RMK AO2
SLP142 T01110083





000
SAUS46 KMFR 300900
MTRMHS
METAR KMHS 300856Z AUTO 00000KT 8SM CLR 07/05 A3008 RMK AO2 SLP191
T00670050 58013





000
SAUS46 KMFR 300857
MTRSXT
METAR KSXT 300856Z AUTO 15011KT 10SM FEW085 12/08 A3002 RMK AO2
SLP146 60000 T01170078 58014





000
SAUS46 KMFR 300816
MTRSXT
SPECI KSXT 300815Z AUTO 15008KT 10SM SCT025 BKN075 OVC090 12/08
A3004 RMK AO2 T01170078





000
SAUS46 KMFR 300757
MTRSXT
METAR KSXT 300756Z AUTO 16006KT 10SM OVC025 12/08 A3005 RMK AO2
RAB26E37 SLP157 P0000 T01170078 401170083





000
SAUS46 KMFR 300710
MTRSXT
SPECI KSXT 300709Z AUTO 15009KT 10SM BKN028 BKN039 OVC080 11/07
A3006 RMK AO2 T01110072





000
SAUS46 KMFR 300657
MTRSXT
METAR KSXT 300656Z AUTO 15009KT 10SM SCT029 BKN037 OVC075 11/08
A3006 RMK AO2 RAB42E53 SLP163 P0000 T01110078





000
SAUS46 KMFR 300557
MTRSXT
METAR KSXT 300556Z AUTO 13010KT 10SM FEW025 BKN075 OVC100 11/08
A3007 RMK AO2 SLP164 T01060083 10106 20100 58010





000
SAUS46 KMFR 300457
MTRSXT
METAR KSXT 300456Z AUTO 14011KT 10SM FEW033 BKN095 10/08 A3008 RMK
AO2 SLP170 T01000083





000
SAUS46 KMFR 300457
MTRSXT
METAR KSXT 300456Z AUTO 14011KT 10SM FEW033 BKN095 10/08 A3008 RMK
AO2 SLP170 T01000083





000
SAUS46 KMFR 300357
MTRSXT
METAR KSXT 300356Z AUTO 16008KT 10SM BKN045 OVC050 11/09 A3009 RMK
AO2 SLP174 T01060089





000
SAUS46 KMFR 300257
MTRSXT
METAR KSXT 300256Z AUTO 17009KT 10SM FEW120 10/09 A3010 RMK AO2
SLP177 T01000094 55004





000
SAUS46 KMFR 300157
MTRSXT
METAR KSXT 300156Z AUTO 17008KT 10SM FEW055 OVC090 10/09 A3010 RMK
AO2 SLP177 T01000089





000
SAUS46 KMFR 300057
MTRSXT
METAR KSXT 300056Z AUTO 17009KT 10SM OVC060 10/09 A3010 RMK AO2
SLP177 T01000089





000
SAUS46 KMFR 292357
MTRSXT
METAR KSXT 292356Z AUTO 16008KT 10SM OVC060 11/09 A3011 RMK AO2
SLP182 T01060089 10111 20100 56012





000
SAUS46 KMFR 292257
MTRSXT
METAR KSXT 292256Z AUTO 16008KT 10SM OVC075 11/09 A3013 RMK AO2
SLP187 T01060089





000
SAUS46 KMFR 292157
MTRSXT
METAR KSXT 292156Z AUTO 16010KT 10SM OVC080 11/09 A3013 RMK AO2
SLP189 T01060094





000
SAUS46 KMFR 292107
MTRSXT
SPECI KSXT 292106Z AUTO 16010KT 9SM FEW002 SCT075 OVC100 10/09 A3015
RMK AO2 T01000094





000
SAUS46 KMFR 292057
MTRSXT
METAR KSXT 292056Z AUTO 16009KT 10SM BKN080 OVC100 10/09 A3015 RMK
AO2 SLP196 T01000089 58008





000
SAUS46 KMFR 292016
MTRSXT
SPECI KSXT 292015Z AUTO 17010KT 6SM BR SCT001 OVC110 11/10 A3016 RMK
AO2 T01060100





000
SAUS46 KMFR 292016
MTRSXT
SPECI KSXT 292015Z AUTO 17010KT 6SM BR SCT001 OVC110 11/10 A3016 RMK
AO2 T01060100





000
SAUS46 KMFR 291958
MTRSXT
METAR KSXT 291956Z AUTO 16009KT 5SM BR BKN001 BKN120 11/10 A3016 RMK
AO2 SLP197 T01060100





000
SAUS46 KMFR 291955
MTRSXT
SPECI KSXT 291953Z AUTO 15010KT 3SM BR BKN001 BKN120 10/10 A3016 RMK
AO2





000
SAUS46 KMFR 291950
MTRSXT
SPECI KSXT 291949Z AUTO 15008KT 1 1/2SM BR BKN001 10/10 A3016 RMK
AO2 VIS 3/4V5 T01000100





000
SAUS46 KMFR 291944
MTRSXT
SPECI KSXT 291943Z AUTO 15008KT 1/2SM FG VV001 10/10 A3016 RMK AO2
T01000100





000
SAUS46 KMFR 291936
MTRSXT
SPECI KSXT 291935Z AUTO 15010KT 1SM BR VV001 10/10 A3016 RMK AO2
T01000100





000
SAUS46 KMFR 291934
MTRSXT
SPECI KSXT 291933Z AUTO 15009KT 1 1/2SM BR SCT001 10/10 A3016 RMK
AO2 T01000100





000
SAUS46 KMFR 291910
MTRSXT
SPECI KSXT 291909Z AUTO 17010KT 8SM FEW002 10/10 A3017 RMK AO2
T01000100





000
SAUS46 KMFR 291857
MTRSXT
METAR KSXT 291856Z AUTO 17006KT 6SM BR BKN002 10/10 A3018 RMK AO2
SLP204 T01000100





000
SAUS46 KMFR 291856
MTRSXT
SPECI KSXT 291854Z AUTO 17007KT 5SM BR BKN002 10/10 A3018 RMK AO2





000
SAUS46 KMFR 291848
MTRSXT
SPECI KSXT 291847Z AUTO 18008KT 2SM BR BKN002 10/10 A3018 RMK AO2
T01000100





000
SAUS46 KMFR 291846
MTRSXT
SPECI KSXT 291845Z AUTO 18007KT 1SM BR VV002 10/10 A3018 RMK AO2
T01000100





000
SAUS46 KMFR 291822
MTRSXT
SPECI KSXT 291820Z AUTO 17009KT 1/4SM FG OVC003 10/10 A3017 RMK AO2
T01000100





000
SAUS46 KMFR 291817
MTRSXT
SPECI KSXT 291816Z AUTO 18008KT 1 1/2SM BR OVC003 10/10 A3017 RMK
AO2 VIS 1/2V5 T01000100





000
SAUS46 KMFR 291800
MTRMHS
METAR KMHS 291756Z AUTO 00000KT 10SM OVC095 13/09 A3021 RMK AO2
SLP241 T01280094 10128 20067 50003





000
SAUS46 KMFR 291757
MTRSXT
METAR KSXT 291756Z AUTO 19006KT 4SM BR OVC003 10/10 A3018 RMK AO2
SLP205 T01000100 10106 20089 50004





000
SAUS46 KMFR 291755
MTRSXT
SPECI KSXT 291754Z AUTO 18005KT 3SM BR OVC003 10/10 A3018 RMK AO2





000
SAUS46 KMFR 291749
MTRSXT
SPECI KSXT 291748Z AUTO 17006KT 1 1/2SM BR OVC004 10/10 A3018 RMK
AO2 VIS 3/4V5 T01000100





000
SAUS46 KMFR 291738
MTRSXT
SPECI KSXT 291737Z AUTO 17007KT 2SM BR OVC004 10/10 A3018 RMK AO2
VIS 3/4V5 T01000100





000
SAUS46 KMFR 291735
MTRSXT
SPECI KSXT 291734Z AUTO 18008KT 1 1/4SM BR OVC004 10/10 A3018 RMK
AO2 VIS 1/2V5 T01000100





000
SAUS46 KMFR 291729
MTRSXT
SPECI KSXT 291728Z AUTO 18007KT 1 3/4SM BR OVC005 10/09 A3018 RMK
AO2 T01000094





000
SAUS46 KMFR 291658
MTRSXT
METAR KSXT 291656Z AUTO 16003KT 10SM OVC006 09/09 A3018 RMK AO2
SLP208 T00940094





000
SAUS46 KMFR 291652
MTRSXT
SPECI KSXT 291651Z AUTO 18005KT 10SM OVC006 09/09 A3018 RMK AO2





000
SAUS46 KMFR 291639
MTRSXT
SPECI KSXT 291638Z AUTO 16008KT 2SM BR OVC005 09/09 A3017 RMK AO2
VIS 3/4V5 T00940094





000
SAUS46 KMFR 291631
MTRSXT
SPECI KSXT 291630Z AUTO 17006KT 1SM BR OVC005 09/09 A3018 RMK AO2
VIS 1/4V3 T00940094





000
SAUS46 KMFR 291631
MTRSXT
SPECI KSXT 291630Z AUTO 17006KT 1SM BR OVC005 09/09 A3018 RMK AO2
VIS 1/4V3 T00940094





000
SAUS46 KMFR 291618
MTRSXT
SPECI KSXT 291617Z AUTO 16010KT 1/4SM FG VV005 09/09 A3017 RMK AO2
T00890089





000
SAUS46 KMFR 291600
MTRMHS
METAR KMHS 291556Z AUTO 00000KT 10SM OVC100 10/08 A3021 RMK AO2
SLP240 T01000078





000
SAUS46 KMFR 291557
MTRSXT
METAR KSXT 291556Z AUTO 17012KT 1/4SM FG VV003 09/09 A3016 RMK AO2
SLP204 T00890089





000
SAUS46 KMFR 291457
MTRSXT
METAR KSXT 291456Z AUTO 16007KT 1/4SM FG VV002 09/09 A3015 RMK AO2
SLP197 T00940094 58003





000
SAUS46 KMFR 291357
MTRSXT
METAR KSXT 291356Z AUTO 18004KT 1/4SM FG VV002 09/09 A3016 RMK AO2
SLP201 T00940089





000
SAUS46 KMFR 291257
MTRSXT
METAR KSXT 291256Z AUTO 15007KT 1/4SM FG VV002 09/09 A3015 RMK AO2
SLP198 T00940094





000
SAUS46 KMFR 291230
MTRSXT
SPECI KSXT 291229Z AUTO 18004KT 1/4SM FG BKN002 OVC017 09/09 A3016
RMK AO2 T00890089





000
SAUS46 KMFR 291222
MTRSXT
SPECI KSXT 291221Z AUTO 22004KT 1/2SM FG BKN002 OVC017 09/09 A3016
RMK AO2 VIS M1/4V4 T00890089





000
SAUS46 KMFR 291212
MTRSXT
SPECI KSXT 291211Z AUTO 22006KT 1/4SM FG BKN002 BKN019 OVC023 09/09
A3016 RMK AO2 T00890089





000
SAUS46 KMFR 291157
MTRSXT
METAR KSXT 291156Z AUTO 21004KT 1/4SM FG BKN001 OVC019 09/09 A3016
RMK AO2 SLP202 60001 70011 T00890089 10094 20083 53003





000
SAUS46 KMFR 291145
MTRSXT
SPECI KSXT 291144Z AUTO 20005KT 1/4SM FG SCT001 OVC021 09/09 A3016
RMK AO2 T00890089





000
SAUS46 KMFR 291136
MTRSXT
SPECI KSXT 291135Z AUTO 21005KT 3/4SM BR SCT001 BKN021 09/09 A3016
RMK AO2 VIS M1/4V5 T00890089





000
SAUS46 KMFR 291134
MTRSXT
SPECI KSXT 291133Z AUTO 22006KT 1 1/2SM BR FEW001 BKN021 09/09 A3016
RMK AO2 VIS 1/2V5 T00890089





000
SAUS46 KMFR 291122
MTRSXT
SPECI KSXT 291121Z AUTO 23007KT 10SM FEW001 BKN021 08/08 A3015 RMK
AO2 T00830083





000
SAUS46 KMFR 291112
MTRSXT
SPECI KSXT 291111Z AUTO 23007KT 3SM BR SCT001 08/08 A3014 RMK AO2
T00830083





000
SAUS46 KMFR 291109
MTRSXT
SPECI KSXT 291108Z AUTO 22007KT 200V260 2SM BR BKN001 08/08 A3014
RMK AO2 T00830083





000
SAUS46 KMFR 291103
MTRSXT
SPECI KSXT 291102Z AUTO 22006KT 1 3/4SM BR BKN002 BKN027 08/08 A3014
RMK AO2 VIS 1V5 T00830083





000
SAUS46 KMFR 291057
MTRSXT
METAR KSXT 291056Z AUTO 25004KT 3SM BR BKN002 BKN027 09/09 A3015 RMK
AO2 SLP203 T00890089





000
SAUS46 KMFR 291054
MTRSXT
SPECI KSXT 291053Z AUTO 24006KT 3SM BR BKN002 BKN027 09/09 A3015 RMK
AO2





000
SAUS46 KMFR 291052
MTRSXT
SPECI KSXT 291051Z AUTO 23006KT 1 1/2SM BR BKN002 BKN027 09/09 A3015
RMK AO2





000
SAUS46 KMFR 291052
MTRSXT
SPECI KSXT 291051Z AUTO 23006KT 1 1/2SM BR BKN002 BKN027 09/09 A3015
RMK AO2





000
SAUS46 KMFR 291005
MTRSXT
SPECI KSXT 291004Z AUTO 24006KT 3/4SM BR VV002 09/09 A3016 RMK AO2
T00890089





000
SAUS46 KMFR 290957
MTRSXT
METAR KSXT 290956Z AUTO VRB06KT 1/4SM FG VV001 09/09 A3015 RMK AO2
SLP203 T00940094





000
SAUS46 KMFR 290934
MTRSXT
SPECI KSXT 290933Z AUTO 20006KT 1/4SM FG VV001 09/09 A3015 RMK AO2
T00940094





000
SAUS46 KMFR 290927
MTRSXT
SPECI KSXT 290926Z AUTO 21005KT 1/4SM FG VV002 09/09 A3015 RMK AO2
T00940094





000
SAUS46 KMFR 290857
MTRSXT
METAR KSXT 290856Z AUTO 23005KT M1/4SM FG VV001 09/09 A3015 RMK AO2
SLP199 60001 T00940094 53005





000
SAUS46 KMFR 290757
MTRSXT
METAR KSXT 290756Z AUTO 21007KT M1/4SM FG VV001 09/09 A3014 RMK AO2
RAE18 SLP196 P0000 T00940094 401000056





000
SAUS46 KMFR 290657
MTRSXT
METAR KSXT 290656Z AUTO 21009KT M1/4SM -RA FG VV001 09/09 A3014 RMK
AO2 RAB15 SLP195 P0001 T00940094





000
SAUS46 KMFR 290619
MTRSXT
SPECI KSXT 290617Z AUTO 21009KT M1/4SM -RA FG VV001 09/09 A3014 RMK
AO2 RAB15 P0000 T00940094





000
SAUS46 KMFR 290609
MTRSXT
SPECI KSXT 290607Z AUTO 21008KT 1/4SM FG BKN002 OVC018 09/09 A3014
RMK AO2 T00940094





000
SAUS46 KMFR 290557
MTRSXT
METAR KSXT 290556Z AUTO 21011KT 1/4SM FG VV001 09/09 A3013 RMK AO2
RAB18E37 SLP193 P0003 60007 T00940094 10094 20083 53012





000
SAUS46 KMFR 290457
MTRSXT
METAR KSXT 290456Z AUTO 20009KT M1/4SM FG VV001 09/09 A3012 RMK AO2
RAB13E32 SLP189 P0001 T00940094





000
SAUS46 KMFR 290357
MTRSXT
METAR KSXT 290356Z AUTO 18012KT M1/4SM FG VV001 09/09 A3010 RMK AO2
RAB29E44 SLP184 P0001 T00890089





000
SAUS46 KMFR 290257
MTRSXT
METAR KSXT 290256Z AUTO 18011KT M1/4SM FG VV001 09/09 A3009 RMK AO2
SLP184 60002 T00890089 53007





000
SAUS46 KMFR 290157
MTRSXT
METAR KSXT 290156Z AUTO 18014KT M1/4SM FG VV001 09/09 A3008 RMK AO2
RAB25E34 SLP178 P0001 T00890089





000
SAUS46 KMFR 290058
MTRSXT
METAR KSXT 290056Z AUTO 18012KT M1/4SM FG VV001 08/08 A3007 RMK AO2
RAB33E54 SLP179 P0001 T00830083





000
SAUS46 KMFR 290039
MTRSXT
SPECI KSXT 290038Z AUTO 19013KT M1/4SM -RA FG VV001 08/08 A3008 RMK
AO2 RAB33 P0000 T00830083





000
SAUS46 KMFR 290024
MTRSXT
SPECI KSXT 290023Z AUTO 17012G18KT 1/4SM FG VV002 08/08 A3007 RMK
AO2 T00830078





000
SAUS46 KMFR 290015
MTRSXT
SPECI KSXT 290014Z AUTO 19011G18KT 3/4SM BR OVC002 08/08 A3008 RMK
AO2 T00830078





000
SAUS46 KMFR 290013
MTRSXT
SPECI KSXT 290012Z AUTO 18012G18KT 1 1/2SM BR OVC002 08/08 A3007 RMK
AO2 VIS 1/2V5 T00830078





000
SAUS46 KMFR 282357
MTRSXT
METAR KSXT 282356Z AUTO 18012G18KT 10SM OVC003 08/08 A3007 RMK AO2
SLP178 60003 T00830078 10100 20061 53003





000
SAUS46 KMFR 282324
MTRSXT
SPECI KSXT 282323Z AUTO 19011G19KT 10SM OVC004 08/07 A3007 RMK AO2
CIG 003V008 T00780072





000
SAUS46 KMFR 282300 COR
MTRMHS
METAR KMHS 282256Z AUTO VRB03KT 10SM BKN055 OVC070 17/04 A3012 RMK
AO2 SLP213 T01670039





000
SAUS46 KMFR 282257
MTRSXT
METAR KSXT 282256Z AUTO 19017G25KT 10SM OVC007 08/07 A3006 RMK AO2
CIG 006V012 SLP175 T00780072





000
SAUS46 KMFR 282253
MTRSXT
SPECI KSXT 282252Z AUTO 20017G25KT 10SM OVC009 08/07 A3007 RMK AO2
CIG 006V011





000
SAUS46 KMFR 282233
MTRSXT
SPECI KSXT 282231Z AUTO 19015G23KT 10SM BKN010 OVC015 08/07 A3006
RMK AO2 T00780067





000
SAUS46 KMFR 282157
MTRSXT
METAR KSXT 282156Z AUTO 17016G22KT 10SM OVC016 07/07 A3006 RMK AO2
PK WND 18027/2102 RAB2059E19 SLP174 P0003 T00720072





000
SAUS46 KMFR 282149
MTRSXT
SPECI KSXT 282148Z AUTO 17015G21KT 8SM OVC016 08/07 A3006 RMK AO2 PK
WND 18027/2102 RAB2059E19 P0003 T00780072





000
SAUS46 KMFR 282128
MTRSXT
SPECI KSXT 282127Z AUTO 18017G24KT 3SM BR FEW003 BKN012 OVC017 07/06
A3006 RMK AO2 PK WND 18027/2102 RAB2059E19 P0003 T00670061





000
SAUS46 KMFR 282126
MTRSXT
SPECI KSXT 282125Z AUTO 18018G24KT 1SM BR FEW003 BKN011 OVC017 07/06
A3006 RMK AO2 PK WND 18027/2102 RAB2059E19 P0003 T00670061





000
SAUS46 KMFR 282117
MTRSXT
SPECI KSXT 282116Z AUTO 17016KT 1/4SM -RA FG SCT002 BKN011 OVC018
06/06 A3006 RMK AO2 PK WND 18027/2102 RAB2059 P0003 T00610061





000
SAUS46 KMFR 282110
MTRSXT
SPECI KSXT 282109Z AUTO 18017G27KT 1SM RA BR FEW002 BKN010 OVC019
06/06 A3006 RMK AO2 PK WND 18027/2102 RAB2059 P0003 T00610056





000
SAUS46 KMFR 282104
MTRSXT
SPECI KSXT 282103Z AUTO 19016G27KT 1 3/4SM RA BR SCT012 OVC019 07/05
A3007 RMK AO2 PK WND 18027/2102 RAB2059 P0002 T00670050





000
SAUS46 KMFR 282057
MTRSXT
METAR KSXT 282056Z AUTO 18013G22KT 10SM OVC019 08/03 A3007 RMK AO2
RAB11E28 SLP179 P0000 60000 T00780033 56003





000
SAUS46 KMFR 281957
MTRSXT
METAR KSXT 281956Z AUTO 19013G22KT 10SM OVC020 08/02 A3008 RMK AO2
SLP178 T00830017





000
SAUS46 KMFR 281941
MTRSXT
SPECI KSXT 281940Z AUTO 19016G24KT 10SM BKN021 BKN028 OVC035 09/02
A3008 RMK AO2 T00890017





000
SAUS46 KMFR 281857
MTRSXT
METAR KSXT 281856Z AUTO 17018G22KT 10SM FEW022 BKN035 OVC042 08/02
A3007 RMK AO2 SLP178 T00830017





000
SAUS46 KMFR 281826
MTRSXT
SPECI KSXT 281825Z AUTO 19014G23KT 10SM SCT028 BKN040 OVC060 08/02
A3009 RMK AO2 T00830017





000
SAUS46 KMFR 281813
MTRSXT
SPECI KSXT 281812Z AUTO 19015G21KT 10SM BKN028 BKN038 OVC075 09/02
A3009 RMK AO2 T00890017





000
SAUS46 KMFR 281757
MTRSXT
METAR KSXT 281756Z AUTO 18013G17KT 10SM BKN034 OVC041 08/02 A3008
RMK AO2 SLP180 T00830022 10083 20056 50008





000
SAUS46 KMFR 281657
MTRSXT
METAR KSXT 281656Z AUTO 17014G22KT 10SM FEW040 BKN070 OVC080 08/02
A3009 RMK AO2 SLP184 T00780017





000
SAUS46 KMFR 281657
MTRSXT
METAR KSXT 281656Z AUTO 17014G22KT 10SM FEW040 BKN070 OVC080 08/02
A3009 RMK AO2 SLP184 T00780017





000
SAUS46 KMFR 281557
MTRSXT
METAR KSXT 281556Z AUTO 18016KT 10SM FEW033 BKN065 OVC120 07/02
A3007 RMK AO2 SLP178 T00720022





000
SAUS46 KMFR 281557
MTRSXT
METAR KSXT 281556Z AUTO 18016KT 10SM FEW033 BKN065 OVC120 07/02
A3007 RMK AO2 SLP178 T00720022





000
SAUS46 KMFR 281457
MTRSXT
METAR KSXT 281456Z AUTO 18016KT 10SM FEW060 06/02 A3006 RMK AO2
SLP175 T00610022 53002





000
SAUS46 KMFR 281357
MTRSXT
METAR KSXT 281356Z AUTO 19016KT 10SM SCT047 SCT070 06/03 A3005 RMK
AO2 SLP174 T00610028





000
SAUS46 KMFR 281257
MTRSXT
METAR KSXT 281256Z AUTO 18015G21KT 10SM CLR 06/03 A3005 RMK AO2
SLP173 T00610033





000
SAUS46 KMFR 281157
MTRSXT
METAR KSXT 281156Z AUTO 18018KT 10SM SCT065 SCT120 06/03 A3005 RMK
AO2 SLP171 T00610033 10072 20061 56007





    US Dept of Commerce
    National Oceanic and Atmospheric Administration
    National Weather Service
    1325 East West Highway
    Silver Spring, MD 20910
    Page Author: NWS Internet Services Team
Disclaimer
Information Quality
Credits
Glossary
Privacy Policy
Freedom of Information Act (FOIA)
About Us
Career Opportunities